sensor_id;sensor_type;location;lat;lon;timestamp;temperature;humidity
30150;DHT22;16962;48.646;9.026;2024-03-22T00:00:40;7.40;1.00
30150;DHT22;16962;48.646;9.026;2024-03-22T00:03:28;7.40;33.90
30150;DHT22;16962;48.646;9.026;2024-03-22T00:06:16;7.40;99.90
30150;DHT22;16962;48.646;9.026;2024-03-22T00:09:03;7.50;99.90
30150;DHT22;16962;48.646;9.026;2024-03-22T00:11:49;7.50;99.90
30150;DHT22;16962;48.646;9.026;2024-03-22T00:14:36;7.50;99.90
30150;DHT22;16962;48.646;9.026;2024-03-22T00:17:22;7.50;99.90
30150;DHT22;16962;48.646;9.026;2024-03-22T00:20:09;7.40;99.90
30150;DHT22;16962;48.646;9.026;2024-03-22T00:22:55;7.40;99.90
30150;DHT22;16962;48.646;9.026;2024-03-22T00:25:41;7.40;99.90
30150;DHT22;16962;48.646;9.026;2024-03-22T00:28:28;7.40;1.00
30150;DHT22;16962;48.646;9.026;2024-03-22T00:31:14;7.40;1.00
30150;DHT22;16962;48.646;9.026;2024-03-22T00:34:00;7.20;1.00
30150;DHT22;16962;48.646;9.026;2024-03-22T00:36:47;7.10;1.00
30150;DHT22;16962;48.646;9.026;2024-03-22T00:39:33;7.00;1.00
30150;DHT22;16962;48.646;9.026;2024-03-22T00:42:21;6.80;1.00
30150;DHT22;16962;48.646;9.026;2024-03-22T00:45:08;6.70;33.20
30150;DHT22;16962;48.646;9.026;2024-03-22T00:47:54;6.70;99.90
30150;DHT22;16962;48.646;9.026;2024-03-22T00:50:41;6.80;99.90
30150;DHT22;16962;48.646;9.026;2024-03-22T00:53:27;6.90;99.90
30150;DHT22;16962;48.646;9.026;2024-03-22T00:56:13;6.90;99.90
30150;DHT22;16962;48.646;9.026;2024-03-22T00:59:00;6.90;1.00
30150;DHT22;16962;48.646;9.026;2024-03-22T01:01:46;6.90;1.00
30150;DHT22;16962;48.646;9.026;2024-03-22T01:04:32;6.90;1.00
30150;DHT22;16962;48.646;9.026;2024-03-22T01:07:19;6.90;1.00
30150;DHT22;16962;48.646;9.026;2024-03-22T01:10:06;6.90;1.00
30150;DHT22;16962;48.646;9.026;2024-03-22T01:12:52;6.90;1.00
30150;DHT22;16962;48.646;9.026;2024-03-22T01:15:39;7.00;1.00
30150;DHT22;16962;48.646;9.026;2024-03-22T01:18:25;7.00;1.00
30150;DHT22;16962;48.646;9.026;2024-03-22T01:21:11;7.10;1.00
30150;DHT22;16962;48.646;9.026;2024-03-22T01:23:59;7.10;1.00
30150;DHT22;16962;48.646;9.026;2024-03-22T01:26:45;7.20;1.00
30150;DHT22;16962;48.646;9.026;2024-03-22T01:29:31;7.10;99.90
30150;DHT22;16962;48.646;9.026;2024-03-22T01:32:17;7.10;99.90
30150;DHT22;16962;48.646;9.026;2024-03-22T01:35:04;7.00;99.90
30150;DHT22;16962;48.646;9.026;2024-03-22T01:37:50;7.00;99.90
30150;DHT22;16962;48.646;9.026;2024-03-22T01:40:36;6.90;99.90
30150;DHT22;16962;48.646;9.026;2024-03-22T01:43:23;6.90;99.90
30150;DHT22;16962;48.646;9.026;2024-03-22T01:46:09;6.90;99.90
30150;DHT22;16962;48.646;9.026;2024-03-22T01:48:56;6.70;99.90
30150;DHT22;16962;48.646;9.026;2024-03-22T01:51:43;6.50;99.90
30150;DHT22;16962;48.646;9.026;2024-03-22T01:54:29;6.40;99.90
30150;DHT22;16962;48.646;9.026;2024-03-22T01:57:16;6.30;99.90
30150;DHT22;16962;48.646;9.026;2024-03-22T02:00:02;6.30;99.90
30150;DHT22;16962;48.646;9.026;2024-03-22T02:02:49;6.30;99.90
30150;DHT22;16962;48.646;9.026;2024-03-22T02:05:35;6.10;99.90
30150;DHT22;16962;48.646;9.026;2024-03-22T02:08:22;6.10;1.00
30150;DHT22;16962;48.646;9.026;2024-03-22T02:11:08;6.00;1.00
30150;DHT22;16962;48.646;9.026;2024-03-22T02:13:55;6.00;27.80
30150;DHT22;16962;48.646;9.026;2024-03-22T02:16:41;6.00;99.90
30150;DHT22;16962;48.646;9.026;2024-03-22T02:19:27;5.90;99.90
30150;DHT22;16962;48.646;9.026;2024-03-22T02:22:14;5.80;99.90
30150;DHT22;16962;48.646;9.026;2024-03-22T02:25:00;5.70;99.90
30150;DHT22;16962;48.646;9.026;2024-03-22T02:27:47;5.60;99.90
30150;DHT22;16962;48.646;9.026;2024-03-22T02:30:36;5.50;99.90
30150;DHT22;16962;48.646;9.026;2024-03-22T02:33:22;5.40;1.00
30150;DHT22;16962;48.646;9.026;2024-03-22T02:36:09;5.50;52.60
30150;DHT22;16962;48.646;9.026;2024-03-22T02:38:55;5.70;99.90
30150;DHT22;16962;48.646;9.026;2024-03-22T02:41:41;5.70;1.00
30150;DHT22;16962;48.646;9.026;2024-03-22T02:44:28;5.80;1.00
30150;DHT22;16962;48.646;9.026;2024-03-22T02:47:14;5.80;99.90
30150;DHT22;16962;48.646;9.026;2024-03-22T02:50:01;5.70;99.90
30150;DHT22;16962;48.646;9.026;2024-03-22T02:52:51;5.60;99.90
30150;DHT22;16962;48.646;9.026;2024-03-22T02:55:38;5.60;99.90
30150;DHT22;16962;48.646;9.026;2024-03-22T02:58:25;5.50;1.00
30150;DHT22;16962;48.646;9.026;2024-03-22T03:01:11;5.50;1.00
30150;DHT22;16962;48.646;9.026;2024-03-22T03:03:57;5.50;99.90
30150;DHT22;16962;48.646;9.026;2024-03-22T03:06:43;5.50;99.90
30150;DHT22;16962;48.646;9.026;2024-03-22T03:09:31;5.70;21.80
30150;DHT22;16962;48.646;9.026;2024-03-22T03:12:18;5.60;99.90
30150;DHT22;16962;48.646;9.026;2024-03-22T03:15:04;5.60;99.90
30150;DHT22;16962;48.646;9.026;2024-03-22T03:17:51;5.70;1.00
30150;DHT22;16962;48.646;9.026;2024-03-22T03:20:38;6.00;1.00
30150;DHT22;16962;48.646;9.026;2024-03-22T03:23:24;6.20;99.90
30150;DHT22;16962;48.646;9.026;2024-03-22T03:26:10;6.40;1.00
30150;DHT22;16962;48.646;9.026;2024-03-22T03:28:56;6.60;1.00
30150;DHT22;16962;48.646;9.026;2024-03-22T03:31:43;6.90;1.00
30150;DHT22;16962;48.646;9.026;2024-03-22T03:34:29;7.10;99.90
30150;DHT22;16962;48.646;9.026;2024-03-22T03:37:15;7.20;99.90
30150;DHT22;16962;48.646;9.026;2024-03-22T03:40:02;7.20;99.90
30150;DHT22;16962;48.646;9.026;2024-03-22T03:42:48;7.20;1.00
30150;DHT22;16962;48.646;9.026;2024-03-22T03:45:37;7.20;5.10
30150;DHT22;16962;48.646;9.026;2024-03-22T03:48:24;7.20;99.90
30150;DHT22;16962;48.646;9.026;2024-03-22T03:51:13;7.20;94.10
30150;DHT22;16962;48.646;9.026;2024-03-22T03:53:59;7.30;1.00
30150;DHT22;16962;48.646;9.026;2024-03-22T03:56:45;7.20;99.90
30150;DHT22;16962;48.646;9.026;2024-03-22T03:59:32;7.20;99.90
30150;DHT22;16962;48.646;9.026;2024-03-22T04:02:18;7.20;1.00
30150;DHT22;16962;48.646;9.026;2024-03-22T04:05:04;7.20;1.00
30150;DHT22;16962;48.646;9.026;2024-03-22T04:07:51;7.20;1.00
30150;DHT22;16962;48.646;9.026;2024-03-22T04:10:37;7.20;99.90
30150;DHT22;16962;48.646;9.026;2024-03-22T04:13:24;7.20;99.90
30150;DHT22;16962;48.646;9.026;2024-03-22T04:16:14;7.20;99.90
30150;DHT22;16962;48.646;9.026;2024-03-22T04:19:00;7.20;99.90
30150;DHT22;16962;48.646;9.026;2024-03-22T04:21:46;7.30;99.90
30150;DHT22;16962;48.646;9.026;2024-03-22T04:24:33;7.40;66.90
30150;DHT22;16962;48.646;9.026;2024-03-22T04:27:19;7.40;1.00
30150;DHT22;16962;48.646;9.026;2024-03-22T04:30:07;7.50;1.00
30150;DHT22;16962;48.646;9.026;2024-03-22T04:32:54;7.60;1.00
30150;DHT22;16962;48.646;9.026;2024-03-22T04:35:45;7.60;99.90
30150;DHT22;16962;48.646;9.026;2024-03-22T04:38:32;7.70;99.90
30150;DHT22;16962;48.646;9.026;2024-03-22T04:41:18;7.70;99.90
30150;DHT22;16962;48.646;9.026;2024-03-22T04:44:04;7.80;99.90
30150;DHT22;16962;48.646;9.026;2024-03-22T04:46:51;7.80;57.40
30150;DHT22;16962;48.646;9.026;2024-03-22T04:49:37;7.80;1.00
30150;DHT22;16962;48.646;9.026;2024-03-22T04:52:23;7.80;1.00
30150;DHT22;16962;48.646;9.026;2024-03-22T04:55:10;7.80;1.00
30150;DHT22;16962;48.646;9.026;2024-03-22T04:57:56;7.80;1.00
30150;DHT22;16962;48.646;9.026;2024-03-22T05:00:43;7.70;1.00
30150;DHT22;16962;48.646;9.026;2024-03-22T05:03:30;7.70;1.00
30150;DHT22;16962;48.646;9.026;2024-03-22T05:06:16;7.60;1.00
30150;DHT22;16962;48.646;9.026;2024-03-22T05:09:02;7.60;1.00
30150;DHT22;16962;48.646;9.026;2024-03-22T05:11:49;7.60;1.00
30150;DHT22;16962;48.646;9.026;2024-03-22T05:14:37;7.50;1.00
30150;DHT22;16962;48.646;9.026;2024-03-22T05:17:23;7.50;1.00
30150;DHT22;16962;48.646;9.026;2024-03-22T05:20:09;7.50;1.00
30150;DHT22;16962;48.646;9.026;2024-03-22T05:22:56;7.60;1.00
30150;DHT22;16962;48.646;9.026;2024-03-22T05:25:43;7.60;1.00
30150;DHT22;16962;48.646;9.026;2024-03-22T05:28:29;7.60;1.00
30150;DHT22;16962;48.646;9.026;2024-03-22T05:31:16;7.50;1.00
30150;DHT22;16962;48.646;9.026;2024-03-22T05:34:03;7.40;1.00
30150;DHT22;16962;48.646;9.026;2024-03-22T05:36:50;7.40;1.00
30150;DHT22;16962;48.646;9.026;2024-03-22T05:39:36;7.30;1.00
30150;DHT22;16962;48.646;9.026;2024-03-22T05:42:23;7.20;1.00
30150;DHT22;16962;48.646;9.026;2024-03-22T05:45:09;7.20;1.00
30150;DHT22;16962;48.646;9.026;2024-03-22T05:47:56;7.20;17.30
30150;DHT22;16962;48.646;9.026;2024-03-22T05:50:42;7.20;72.20
30150;DHT22;16962;48.646;9.026;2024-03-22T05:53:28;7.30;98.80
30150;DHT22;16962;48.646;9.026;2024-03-22T05:56:15;7.20;99.70
30150;DHT22;16962;48.646;9.026;2024-03-22T05:59:01;7.10;99.90
30150;DHT22;16962;48.646;9.026;2024-03-22T06:01:47;7.00;99.90
30150;DHT22;16962;48.646;9.026;2024-03-22T06:04:34;7.00;99.90
30150;DHT22;16962;48.646;9.026;2024-03-22T06:07:20;7.10;99.90
30150;DHT22;16962;48.646;9.026;2024-03-22T06:10:07;7.20;99.90
30150;DHT22;16962;48.646;9.026;2024-03-22T06:12:54;7.20;99.90
30150;DHT22;16962;48.646;9.026;2024-03-22T06:15:43;7.30;99.90
30150;DHT22;16962;48.646;9.026;2024-03-22T06:18:31;7.30;99.90
30150;DHT22;16962;48.646;9.026;2024-03-22T06:21:20;7.40;99.90
30150;DHT22;16962;48.646;9.026;2024-03-22T06:24:11;7.60;99.90
30150;DHT22;16962;48.646;9.026;2024-03-22T06:26:58;7.80;99.90
30150;DHT22;16962;48.646;9.026;2024-03-22T06:29:44;8.10;99.90
30150;DHT22;16962;48.646;9.026;2024-03-22T06:32:30;8.40;99.90
30150;DHT22;16962;48.646;9.026;2024-03-22T06:35:16;8.50;1.00
30150;DHT22;16962;48.646;9.026;2024-03-22T06:38:03;8.50;1.00
30150;DHT22;16962;48.646;9.026;2024-03-22T06:40:50;8.60;99.90
30150;DHT22;16962;48.646;9.026;2024-03-22T06:43:36;8.60;99.90
30150;DHT22;16962;48.646;9.026;2024-03-22T06:46:22;8.70;99.90
30150;DHT22;16962;48.646;9.026;2024-03-22T06:49:09;8.90;99.90
30150;DHT22;16962;48.646;9.026;2024-03-22T06:51:55;9.10;99.90
30150;DHT22;16962;48.646;9.026;2024-03-22T06:54:42;9.20;11.10
30150;DHT22;16962;48.646;9.026;2024-03-22T06:57:28;9.20;1.00
30150;DHT22;16962;48.646;9.026;2024-03-22T07:00:16;9.30;1.00
30150;DHT22;16962;48.646;9.026;2024-03-22T07:03:04;9.50;1.00
30150;DHT22;16962;48.646;9.026;2024-03-22T07:05:51;9.70;99.90
30150;DHT22;16962;48.646;9.026;2024-03-22T07:08:38;9.90;99.90
30150;DHT22;16962;48.646;9.026;2024-03-22T07:11:24;10.10;99.90
30150;DHT22;16962;48.646;9.026;2024-03-22T07:14:11;10.20;99.90
30150;DHT22;16962;48.646;9.026;2024-03-22T07:16:57;10.30;99.90
30150;DHT22;16962;48.646;9.026;2024-03-22T07:19:44;10.30;99.90
30150;DHT22;16962;48.646;9.026;2024-03-22T07:22:33;10.50;99.90
30150;DHT22;16962;48.646;9.026;2024-03-22T07:25:19;10.70;99.90
30150;DHT22;16962;48.646;9.026;2024-03-22T07:28:05;11.00;67.10
30150;DHT22;16962;48.646;9.026;2024-03-22T07:30:52;11.30;13.00
30150;DHT22;16962;48.646;9.026;2024-03-22T07:33:44;11.60;1.00
30150;DHT22;16962;48.646;9.026;2024-03-22T07:36:30;11.90;1.00
30150;DHT22;16962;48.646;9.026;2024-03-22T07:39:17;12.10;1.00
30150;DHT22;16962;48.646;9.026;2024-03-22T07:42:04;12.40;1.00
30150;DHT22;16962;48.646;9.026;2024-03-22T07:44:51;12.70;99.90
30150;DHT22;16962;48.646;9.026;2024-03-22T07:47:37;13.00;99.90
30150;DHT22;16962;48.646;9.026;2024-03-22T07:50:24;13.30;99.90
30150;DHT22;16962;48.646;9.026;2024-03-22T07:53:11;13.50;99.90
30150;DHT22;16962;48.646;9.026;2024-03-22T07:55:59;13.60;99.90
30150;DHT22;16962;48.646;9.026;2024-03-22T07:58:55;13.80;99.90
30150;DHT22;16962;48.646;9.026;2024-03-22T08:01:42;13.90;99.90
30150;DHT22;16962;48.646;9.026;2024-03-22T08:04:29;14.20;99.90
30150;DHT22;16962;48.646;9.026;2024-03-22T08:07:16;14.60;99.90
30150;DHT22;16962;48.646;9.026;2024-03-22T08:10:03;15.10;99.90
30150;DHT22;16962;48.646;9.026;2024-03-22T08:12:50;15.20;99.90
30150;DHT22;16962;48.646;9.026;2024-03-22T08:15:36;15.50;99.90
30150;DHT22;16962;48.646;9.026;2024-03-22T08:18:23;15.70;99.90
30150;DHT22;16962;48.646;9.026;2024-03-22T08:21:09;15.40;99.90
30150;DHT22;16962;48.646;9.026;2024-03-22T08:23:56;15.70;99.90
30150;DHT22;16962;48.646;9.026;2024-03-22T08:26:42;16.10;99.90
30150;DHT22;16962;48.646;9.026;2024-03-22T08:29:32;16.40;99.90
30150;DHT22;16962;48.646;9.026;2024-03-22T08:32:19;16.90;99.90
30150;DHT22;16962;48.646;9.026;2024-03-22T08:35:06;16.90;81.40
30150;DHT22;16962;48.646;9.026;2024-03-22T08:37:52;17.20;73.00
30150;DHT22;16962;48.646;9.026;2024-03-22T08:40:39;17.30;49.90
30150;DHT22;16962;48.646;9.026;2024-03-22T08:43:26;17.10;43.10
30150;DHT22;16962;48.646;9.026;2024-03-22T08:46:15;17.30;31.20
30150;DHT22;16962;48.646;9.026;2024-03-22T08:49:02;17.50;23.80
30150;DHT22;16962;48.646;9.026;2024-03-22T08:51:49;17.50;18.20
30150;DHT22;16962;48.646;9.026;2024-03-22T08:54:36;17.90;15.10
30150;DHT22;16962;48.646;9.026;2024-03-22T08:57:22;18.00;4.00
30150;DHT22;16962;48.646;9.026;2024-03-22T09:00:09;18.00;1.00
30150;DHT22;16962;48.646;9.026;2024-03-22T09:02:58;18.10;1.00
30150;DHT22;16962;48.646;9.026;2024-03-22T09:05:48;18.00;1.00
30150;DHT22;16962;48.646;9.026;2024-03-22T09:08:38;18.80;1.00
30150;DHT22;16962;48.646;9.026;2024-03-22T09:11:25;19.30;1.00
30150;DHT22;16962;48.646;9.026;2024-03-22T09:14:35;20.20;1.00
30150;DHT22;16962;48.646;9.026;2024-03-22T09:17:21;20.00;1.00
30150;DHT22;16962;48.646;9.026;2024-03-22T09:20:08;19.30;1.00
30150;DHT22;16962;48.646;9.026;2024-03-22T09:22:56;19.10;1.00
30150;DHT22;16962;48.646;9.026;2024-03-22T09:25:48;19.10;1.00
30150;DHT22;16962;48.646;9.026;2024-03-22T09:28:35;19.80;1.00
30150;DHT22;16962;48.646;9.026;2024-03-22T09:31:22;19.50;1.00
30150;DHT22;16962;48.646;9.026;2024-03-22T09:34:08;19.90;1.00
30150;DHT22;16962;48.646;9.026;2024-03-22T09:36:55;20.50;1.00
30150;DHT22;16962;48.646;9.026;2024-03-22T09:39:42;21.30;1.00
30150;DHT22;16962;48.646;9.026;2024-03-22T09:42:31;21.30;1.00
30150;DHT22;16962;48.646;9.026;2024-03-22T09:45:19;21.40;1.00
30150;DHT22;16962;48.646;9.026;2024-03-22T09:48:06;21.10;1.00
30150;DHT22;16962;48.646;9.026;2024-03-22T09:50:53;20.40;1.00
30150;DHT22;16962;48.646;9.026;2024-03-22T09:53:39;20.10;1.00
30150;DHT22;16962;48.646;9.026;2024-03-22T09:56:27;20.30;1.00
30150;DHT22;16962;48.646;9.026;2024-03-22T09:59:15;19.70;1.00
30150;DHT22;16962;48.646;9.026;2024-03-22T10:02:03;20.10;1.00
30150;DHT22;16962;48.646;9.026;2024-03-22T10:04:50;21.20;1.00
30150;DHT22;16962;48.646;9.026;2024-03-22T10:07:40;22.00;1.00
30150;DHT22;16962;48.646;9.026;2024-03-22T10:10:27;22.00;1.00
30150;DHT22;16962;48.646;9.026;2024-03-22T10:13:14;21.10;1.00
30150;DHT22;16962;48.646;9.026;2024-03-22T10:16:00;20.30;1.00
30150;DHT22;16962;48.646;9.026;2024-03-22T10:18:47;19.90;1.00
30150;DHT22;16962;48.646;9.026;2024-03-22T10:21:34;19.40;1.00
30150;DHT22;16962;48.646;9.026;2024-03-22T10:24:20;19.90;1.00
30150;DHT22;16962;48.646;9.026;2024-03-22T10:27:08;20.60;1.00
30150;DHT22;16962;48.646;9.026;2024-03-22T10:29:55;21.30;1.00
30150;DHT22;16962;48.646;9.026;2024-03-22T10:32:45;22.10;1.00
30150;DHT22;16962;48.646;9.026;2024-03-22T10:35:32;22.70;1.00
30150;DHT22;16962;48.646;9.026;2024-03-22T10:38:20;22.10;1.00
30150;DHT22;16962;48.646;9.026;2024-03-22T10:41:07;22.20;1.00
30150;DHT22;16962;48.646;9.026;2024-03-22T10:43:53;22.40;1.00
30150;DHT22;16962;48.646;9.026;2024-03-22T10:46:47;22.10;1.00
30150;DHT22;16962;48.646;9.026;2024-03-22T10:49:37;22.20;1.00
30150;DHT22;16962;48.646;9.026;2024-03-22T10:52:23;21.90;1.00
30150;DHT22;16962;48.646;9.026;2024-03-22T10:55:15;21.50;1.00
30150;DHT22;16962;48.646;9.026;2024-03-22T10:58:03;21.80;1.00
30150;DHT22;16962;48.646;9.026;2024-03-22T11:00:54;22.00;1.00
30150;DHT22;16962;48.646;9.026;2024-03-22T11:03:44;22.50;1.00
30150;DHT22;16962;48.646;9.026;2024-03-22T11:06:31;21.80;1.00
30150;DHT22;16962;48.646;9.026;2024-03-22T11:09:26;21.10;1.00
30150;DHT22;16962;48.646;9.026;2024-03-22T11:12:13;20.80;1.00
30150;DHT22;16962;48.646;9.026;2024-03-22T11:15:01;20.10;1.00
30150;DHT22;16962;48.646;9.026;2024-03-22T11:17:48;19.90;1.00
30150;DHT22;16962;48.646;9.026;2024-03-22T11:20:38;21.20;1.00
30150;DHT22;16962;48.646;9.026;2024-03-22T11:23:24;21.30;1.00
30150;DHT22;16962;48.646;9.026;2024-03-22T11:26:11;21.50;1.00
30150;DHT22;16962;48.646;9.026;2024-03-22T11:28:59;22.40;1.00
30150;DHT22;16962;48.646;9.026;2024-03-22T11:31:45;23.70;1.00
30150;DHT22;16962;48.646;9.026;2024-03-22T11:34:31;23.60;1.00
30150;DHT22;16962;48.646;9.026;2024-03-22T11:37:18;23.30;1.00
30150;DHT22;16962;48.646;9.026;2024-03-22T11:40:05;22.90;1.00
30150;DHT22;16962;48.646;9.026;2024-03-22T11:42:54;23.00;1.00
30150;DHT22;16962;48.646;9.026;2024-03-22T11:45:42;23.80;1.00
30150;DHT22;16962;48.646;9.026;2024-03-22T11:48:29;23.80;1.00
30150;DHT22;16962;48.646;9.026;2024-03-22T11:51:16;23.40;1.00
30150;DHT22;16962;48.646;9.026;2024-03-22T11:54:03;24.80;1.00
30150;DHT22;16962;48.646;9.026;2024-03-22T11:56:50;25.70;1.00
30150;DHT22;16962;48.646;9.026;2024-03-22T11:59:36;26.30;1.00
30150;DHT22;16962;48.646;9.026;2024-03-22T12:02:26;24.60;1.00
30150;DHT22;16962;48.646;9.026;2024-03-22T12:05:13;23.20;1.00
30150;DHT22;16962;48.646;9.026;2024-03-22T12:08:00;23.30;1.00
30150;DHT22;16962;48.646;9.026;2024-03-22T12:10:47;23.50;1.00
30150;DHT22;16962;48.646;9.026;2024-03-22T12:13:33;22.60;1.00
30150;DHT22;16962;48.646;9.026;2024-03-22T12:16:20;21.90;1.00
30150;DHT22;16962;48.646;9.026;2024-03-22T12:19:06;22.10;1.00
30150;DHT22;16962;48.646;9.026;2024-03-22T12:21:53;22.20;1.00
30150;DHT22;16962;48.646;9.026;2024-03-22T12:24:39;21.80;1.00
30150;DHT22;16962;48.646;9.026;2024-03-22T12:27:26;21.80;1.00
30150;DHT22;16962;48.646;9.026;2024-03-22T12:30:13;21.80;1.00
30150;DHT22;16962;48.646;9.026;2024-03-22T12:33:00;21.90;1.00
30150;DHT22;16962;48.646;9.026;2024-03-22T12:35:47;22.40;1.00
30150;DHT22;16962;48.646;9.026;2024-03-22T12:38:34;23.20;1.00
30150;DHT22;16962;48.646;9.026;2024-03-22T12:41:21;23.60;1.00
30150;DHT22;16962;48.646;9.026;2024-03-22T12:44:07;24.00;1.00
30150;DHT22;16962;48.646;9.026;2024-03-22T12:46:54;24.40;1.00
30150;DHT22;16962;48.646;9.026;2024-03-22T12:49:42;24.10;1.00
30150;DHT22;16962;48.646;9.026;2024-03-22T12:52:28;23.90;1.00
30150;DHT22;16962;48.646;9.026;2024-03-22T12:55:15;23.20;1.00
30150;DHT22;16962;48.646;9.026;2024-03-22T12:58:02;21.80;1.00
30150;DHT22;16962;48.646;9.026;2024-03-22T13:00:49;21.10;1.00
30150;DHT22;16962;48.646;9.026;2024-03-22T13:03:35;21.20;1.00
30150;DHT22;16962;48.646;9.026;2024-03-22T13:06:22;21.80;1.00
30150;DHT22;16962;48.646;9.026;2024-03-22T13:09:08;22.70;1.00
30150;DHT22;16962;48.646;9.026;2024-03-22T13:11:55;22.10;1.00
30150;DHT22;16962;48.646;9.026;2024-03-22T13:14:42;22.70;1.00
30150;DHT22;16962;48.646;9.026;2024-03-22T13:17:30;23.30;1.00
30150;DHT22;16962;48.646;9.026;2024-03-22T13:20:17;24.00;1.00
30150;DHT22;16962;48.646;9.026;2024-03-22T13:23:04;24.10;1.00
30150;DHT22;16962;48.646;9.026;2024-03-22T13:25:51;24.50;1.00
30150;DHT22;16962;48.646;9.026;2024-03-22T13:28:38;23.90;1.00
30150;DHT22;16962;48.646;9.026;2024-03-22T13:31:24;23.10;1.00
30150;DHT22;16962;48.646;9.026;2024-03-22T13:34:11;22.40;1.00
30150;DHT22;16962;48.646;9.026;2024-03-22T13:36:57;22.10;1.00
30150;DHT22;16962;48.646;9.026;2024-03-22T13:39:50;22.50;1.00
30150;DHT22;16962;48.646;9.026;2024-03-22T13:42:37;21.60;1.00
30150;DHT22;16962;48.646;9.026;2024-03-22T13:45:23;21.20;1.00
30150;DHT22;16962;48.646;9.026;2024-03-22T13:48:11;21.70;1.00
30150;DHT22;16962;48.646;9.026;2024-03-22T13:50:58;22.10;1.00
30150;DHT22;16962;48.646;9.026;2024-03-22T13:53:45;21.90;1.00
30150;DHT22;16962;48.646;9.026;2024-03-22T13:56:31;21.60;1.00
30150;DHT22;16962;48.646;9.026;2024-03-22T13:59:18;22.10;1.00
30150;DHT22;16962;48.646;9.026;2024-03-22T14:02:06;23.10;1.00
30150;DHT22;16962;48.646;9.026;2024-03-22T14:04:53;24.20;1.00
30150;DHT22;16962;48.646;9.026;2024-03-22T14:07:40;23.60;1.00
30150;DHT22;16962;48.646;9.026;2024-03-22T14:10:27;23.80;1.00
30150;DHT22;16962;48.646;9.026;2024-03-22T14:13:15;24.20;1.00
30150;DHT22;16962;48.646;9.026;2024-03-22T14:16:02;24.90;1.00
30150;DHT22;16962;48.646;9.026;2024-03-22T14:18:49;26.30;1.00
30150;DHT22;16962;48.646;9.026;2024-03-22T14:21:36;27.80;1.00
30150;DHT22;16962;48.646;9.026;2024-03-22T14:24:24;28.60;1.00
30150;DHT22;16962;48.646;9.026;2024-03-22T14:27:10;27.50;1.00
30150;DHT22;16962;48.646;9.026;2024-03-22T14:29:57;26.90;1.00
30150;DHT22;16962;48.646;9.026;2024-03-22T14:32:43;25.80;1.00
30150;DHT22;16962;48.646;9.026;2024-03-22T14:35:30;23.80;1.00
30150;DHT22;16962;48.646;9.026;2024-03-22T14:38:16;23.00;1.00
30150;DHT22;16962;48.646;9.026;2024-03-22T14:41:03;21.90;1.00
30150;DHT22;16962;48.646;9.026;2024-03-22T14:43:49;21.50;1.00
30150;DHT22;16962;48.646;9.026;2024-03-22T14:46:37;21.70;1.00
30150;DHT22;16962;48.646;9.026;2024-03-22T14:49:23;21.50;1.00
30150;DHT22;16962;48.646;9.026;2024-03-22T14:52:09;21.00;1.00
30150;DHT22;16962;48.646;9.026;2024-03-22T14:54:56;20.80;1.00
30150;DHT22;16962;48.646;9.026;2024-03-22T14:57:42;20.60;1.00
30150;DHT22;16962;48.646;9.026;2024-03-22T15:00:30;20.80;1.00
30150;DHT22;16962;48.646;9.026;2024-03-22T15:03:16;20.90;1.00
30150;DHT22;16962;48.646;9.026;2024-03-22T15:06:03;20.90;1.00
30150;DHT22;16962;48.646;9.026;2024-03-22T15:08:49;20.80;1.00
30150;DHT22;16962;48.646;9.026;2024-03-22T15:11:36;20.90;1.00
30150;DHT22;16962;48.646;9.026;2024-03-22T15:14:23;20.90;1.00
30150;DHT22;16962;48.646;9.026;2024-03-22T15:17:09;20.90;1.00
30150;DHT22;16962;48.646;9.026;2024-03-22T15:19:57;20.60;1.00
30150;DHT22;16962;48.646;9.026;2024-03-22T15:22:44;20.30;1.00
30150;DHT22;16962;48.646;9.026;2024-03-22T15:25:31;20.10;1.00
30150;DHT22;16962;48.646;9.026;2024-03-22T15:28:17;19.90;1.00
30150;DHT22;16962;48.646;9.026;2024-03-22T15:31:04;19.50;1.00
30150;DHT22;16962;48.646;9.026;2024-03-22T15:33:51;19.10;1.00
30150;DHT22;16962;48.646;9.026;2024-03-22T15:36:37;18.80;1.00
30150;DHT22;16962;48.646;9.026;2024-03-22T15:39:24;18.60;1.00
30150;DHT22;16962;48.646;9.026;2024-03-22T15:42:11;18.60;1.00
30150;DHT22;16962;48.646;9.026;2024-03-22T15:44:58;18.60;1.00
30150;DHT22;16962;48.646;9.026;2024-03-22T15:47:49;18.40;1.00
30150;DHT22;16962;48.646;9.026;2024-03-22T15:50:35;18.30;1.00
30150;DHT22;16962;48.646;9.026;2024-03-22T15:53:22;18.20;1.00
30150;DHT22;16962;48.646;9.026;2024-03-22T15:56:08;18.20;1.00
30150;DHT22;16962;48.646;9.026;2024-03-22T15:58:55;18.10;1.00
30150;DHT22;16962;48.646;9.026;2024-03-22T16:01:41;18.10;1.00
30150;DHT22;16962;48.646;9.026;2024-03-22T16:04:29;17.90;1.00
30150;DHT22;16962;48.646;9.026;2024-03-22T16:07:15;17.80;1.00
30150;DHT22;16962;48.646;9.026;2024-03-22T16:10:02;17.70;1.00
30150;DHT22;16962;48.646;9.026;2024-03-22T16:12:49;17.60;1.00
30150;DHT22;16962;48.646;9.026;2024-03-22T16:15:36;17.50;1.00
30150;DHT22;16962;48.646;9.026;2024-03-22T16:18:22;17.50;1.00
30150;DHT22;16962;48.646;9.026;2024-03-22T16:21:08;17.40;1.00
30150;DHT22;16962;48.646;9.026;2024-03-22T16:23:57;17.40;1.00
30150;DHT22;16962;48.646;9.026;2024-03-22T16:26:43;17.30;1.00
30150;DHT22;16962;48.646;9.026;2024-03-22T16:29:30;17.20;1.00
30150;DHT22;16962;48.646;9.026;2024-03-22T16:32:16;17.10;1.00
30150;DHT22;16962;48.646;9.026;2024-03-22T16:35:03;17.10;1.00
30150;DHT22;16962;48.646;9.026;2024-03-22T16:37:51;17.10;1.00
30150;DHT22;16962;48.646;9.026;2024-03-22T16:40:38;17.00;1.00
30150;DHT22;16962;48.646;9.026;2024-03-22T16:43:24;16.90;1.00
30150;DHT22;16962;48.646;9.026;2024-03-22T16:46:10;16.90;1.00
30150;DHT22;16962;48.646;9.026;2024-03-22T16:48:57;16.80;1.00
30150;DHT22;16962;48.646;9.026;2024-03-22T16:51:43;16.60;1.00
30150;DHT22;16962;48.646;9.026;2024-03-22T16:54:30;16.50;1.00
30150;DHT22;16962;48.646;9.026;2024-03-22T16:57:17;16.40;1.00
30150;DHT22;16962;48.646;9.026;2024-03-22T17:00:04;16.30;1.00
30150;DHT22;16962;48.646;9.026;2024-03-22T17:02:53;16.30;1.00
30150;DHT22;16962;48.646;9.026;2024-03-22T17:05:39;16.20;1.00
30150;DHT22;16962;48.646;9.026;2024-03-22T17:08:25;16.20;1.00
30150;DHT22;16962;48.646;9.026;2024-03-22T17:11:12;16.10;1.00
30150;DHT22;16962;48.646;9.026;2024-03-22T17:13:59;16.00;1.00
30150;DHT22;16962;48.646;9.026;2024-03-22T17:16:45;15.90;1.00
30150;DHT22;16962;48.646;9.026;2024-03-22T17:19:36;15.90;1.00
30150;DHT22;16962;48.646;9.026;2024-03-22T17:22:22;15.80;1.00
30150;DHT22;16962;48.646;9.026;2024-03-22T17:25:09;15.70;1.00
30150;DHT22;16962;48.646;9.026;2024-03-22T17:28:01;15.60;1.00
30150;DHT22;16962;48.646;9.026;2024-03-22T17:30:48;15.60;1.00
30150;DHT22;16962;48.646;9.026;2024-03-22T17:33:35;15.50;1.00
30150;DHT22;16962;48.646;9.026;2024-03-22T17:36:21;15.50;1.00
30150;DHT22;16962;48.646;9.026;2024-03-22T17:39:07;15.40;1.00
30150;DHT22;16962;48.646;9.026;2024-03-22T17:41:54;15.30;1.00
30150;DHT22;16962;48.646;9.026;2024-03-22T17:44:40;15.20;1.00
30150;DHT22;16962;48.646;9.026;2024-03-22T17:47:27;15.20;1.00
30150;DHT22;16962;48.646;9.026;2024-03-22T17:50:13;15.20;1.00
30150;DHT22;16962;48.646;9.026;2024-03-22T17:52:59;15.10;1.00